createdAt,value
2018-01-26T00:01:52.042Z,79.40
2018-01-26T00:03:55.376Z,79.10
2018-01-26T00:05:59.122Z,79.30
2018-01-26T00:08:03.362Z,79.30
2018-01-26T00:10:07.113Z,79.70
2018-01-26T00:12:10.450Z,78.60
2018-01-26T00:14:13.996Z,78.50
2018-01-26T00:16:18.129Z,78.50
2018-01-26T00:18:22.648Z,78.50
2018-01-26T00:20:26.842Z,79.00
2018-01-26T00:22:30.160Z,78.80
2018-01-26T00:24:34.214Z,79.30
2018-01-26T00:26:37.762Z,79.20
2018-01-26T00:28:41.108Z,78.70
2018-01-26T00:30:44.451Z,78.80
2018-01-26T00:32:50.084Z,78.70
2018-01-26T00:34:53.662Z,78.50
2018-01-26T00:36:57.374Z,78.80
2018-01-26T00:39:00.723Z,79.20
2018-01-26T00:41:04.207Z,78.80
2018-01-26T00:43:07.552Z,78.90
2018-01-26T00:45:11.025Z,78.30
2018-01-26T00:47:14.560Z,78.80
2018-01-26T00:49:18.056Z,79.10
2018-01-26T00:51:21.713Z,78.80
2018-01-26T00:53:25.031Z,79.30
2018-01-26T00:55:29.162Z,78.30
2018-01-26T00:57:33.251Z,78.80
2018-01-26T00:59:38.117Z,79.10
2018-01-26T01:01:41.417Z,79.00
2018-01-26T01:03:44.862Z,78.80
2018-01-26T01:05:48.234Z,79.70
2018-01-26T01:07:52.762Z,79.00
2018-01-26T01:09:56.076Z,78.30
2018-01-26T01:12:01.036Z,77.80
2018-01-26T01:14:04.528Z,77.70
2018-01-26T01:16:07.894Z,77.50
2018-01-26T01:18:11.218Z,76.90
2018-01-26T01:20:14.658Z,76.60
2018-01-26T01:22:18.295Z,78.00
2018-01-26T01:24:23.226Z,78.20
2018-01-26T01:26:27.412Z,78.20
2018-01-26T01:28:30.784Z,78.30
2018-01-26T01:30:34.793Z,78.20
2018-01-26T01:32:38.617Z,78.80
2018-01-26T01:34:41.993Z,78.20
2018-01-26T01:36:46.224Z,78.40
2018-01-26T01:38:49.723Z,78.40
2018-01-26T01:40:53.805Z,79.60
2018-01-26T01:42:57.167Z,79.10
2018-01-26T01:45:00.796Z,79.00
2018-01-26T01:47:04.151Z,78.60
2018-01-26T01:49:16.701Z,78.30
2018-01-26T01:51:20.054Z,78.00
2018-01-26T01:53:23.401Z,78.10
2018-01-26T01:55:27.526Z,78.40
2018-01-26T01:57:30.999Z,78.30
2018-01-26T01:59:34.370Z,78.50
2018-01-26T02:01:38.493Z,78.40
2018-01-26T02:03:41.816Z,78.40
2018-01-26T02:05:45.404Z,78.30
2018-01-26T02:07:49.486Z,78.30
2018-01-26T02:09:52.833Z,78.40
2018-01-26T02:11:56.150Z,78.30
2018-01-26T02:13:59.528Z,78.10
2018-01-26T02:16:02.914Z,78.40
2018-01-26T02:18:06.243Z,78.00
2018-01-26T02:20:09.566Z,78.10
2018-01-26T02:22:12.968Z,78.60
2018-01-26T02:24:33.970Z,78.10
2018-01-26T02:26:43.460Z,78.30
2018-01-26T02:28:47.094Z,78.20
2018-01-26T02:30:51.021Z,78.70
2018-01-26T02:32:54.540Z,78.70
2018-01-26T02:34:57.918Z,79.00
2018-01-26T02:37:01.346Z,78.60
2018-01-26T02:39:04.697Z,78.00
2018-01-26T02:41:08.051Z,78.00
2018-01-26T02:43:12.222Z,78.40
2018-01-26T02:45:15.585Z,78.90
2018-01-26T02:47:18.896Z,78.50
2018-01-26T02:49:22.224Z,78.80
2018-01-26T02:51:26.384Z,79.40
2018-01-26T02:53:29.725Z,79.10
2018-01-26T02:55:33.056Z,79.20
2018-01-26T02:57:36.386Z,79.20
2018-01-26T02:59:39.716Z,79.00
2018-01-26T03:01:43.807Z,79.60
2018-01-26T03:03:47.916Z,80.20
2018-01-26T03:05:51.267Z,80.20
2018-01-26T03:07:54.607Z,79.70
2018-01-26T03:09:57.965Z,80.00
2018-01-26T03:12:01.340Z,79.80
2018-01-26T03:14:04.685Z,79.60
2018-01-26T03:16:08.267Z,79.50
2018-01-26T03:18:12.471Z,79.60
2018-01-26T03:20:15.796Z,79.20
2018-01-26T03:22:19.883Z,79.60
2018-01-26T03:24:23.205Z,79.40
2018-01-26T03:26:26.544Z,79.80
2018-01-26T03:28:29.934Z,79.40
2018-01-26T03:30:33.258Z,79.40
2018-01-26T03:32:37.343Z,80.40
2018-01-26T03:34:40.664Z,80.30
2018-01-26T03:36:44.010Z,80.60
2018-01-26T03:38:47.362Z,80.60
2018-01-26T03:40:50.684Z,80.60
2018-01-26T03:42:55.542Z,80.40
2018-01-26T03:44:58.861Z,80.40
2018-01-26T03:47:02.932Z,80.00
2018-01-26T03:49:06.257Z,79.80
2018-01-26T03:51:10.329Z,78.70
2018-01-26T03:53:13.631Z,78.80
2018-01-26T03:55:16.945Z,78.70
2018-01-26T03:57:21.022Z,79.00
2018-01-26T03:59:24.337Z,78.90
2018-01-26T04:01:28.424Z,78.90
2018-01-26T04:03:31.745Z,78.70
2018-01-26T04:05:35.083Z,79.00
2018-01-26T04:07:38.402Z,78.70
2018-01-26T04:09:41.723Z,79.50
2018-01-26T04:11:45.805Z,78.80
2018-01-26T04:13:49.147Z,78.80
2018-01-26T04:15:52.469Z,78.60
2018-01-26T04:17:55.782Z,79.70
2018-01-26T04:19:59.097Z,79.60
2018-01-26T04:22:02.445Z,79.70
2018-01-26T04:24:05.754Z,79.90
2018-01-26T04:26:09.862Z,79.90
2018-01-26T04:28:13.954Z,80.00
2018-01-26T04:30:17.261Z,79.80
2018-01-26T04:32:21.341Z,80.50
2018-01-26T04:34:24.673Z,80.50
2018-01-26T04:36:28.762Z,80.10
2018-01-26T04:38:32.119Z,79.90
2018-01-26T04:40:35.437Z,79.90
2018-01-26T04:42:39.545Z,80.10
2018-01-26T04:44:42.885Z,79.90
2018-01-26T04:46:47.260Z,80.00
2018-01-26T04:48:50.620Z,80.20
2018-01-26T04:50:53.927Z,79.90
2018-01-26T04:52:57.245Z,79.80
2018-01-26T04:55:00.560Z,79.90
2018-01-26T04:57:03.890Z,79.90
2018-01-26T04:59:07.192Z,80.90
2018-01-26T05:01:10.535Z,80.60
2018-01-26T05:03:13.876Z,79.70
2018-01-26T05:05:17.184Z,80.10
2018-01-26T05:07:20.497Z,79.70
2018-01-26T05:09:23.823Z,80.00
2018-01-26T05:11:27.172Z,79.30
2018-01-26T05:13:30.524Z,78.70
2018-01-26T05:15:33.932Z,78.80
2018-01-26T05:17:37.355Z,78.30
2018-01-26T05:19:40.724Z,78.10
2018-01-26T05:21:44.049Z,78.20
2018-01-26T05:23:47.446Z,78.80
2018-01-26T05:25:50.793Z,78.50
2018-01-26T05:27:54.203Z,78.90
2018-01-26T05:29:57.718Z,78.80
2018-01-26T05:32:01.076Z,79.10
2018-01-26T05:34:04.843Z,79.20
2018-01-26T05:36:09.185Z,79.50
2018-01-26T05:38:12.549Z,79.00
2018-01-26T05:40:16.818Z,78.80
2018-01-26T05:42:21.438Z,78.90
2018-01-26T05:44:25.549Z,79.30
2018-01-26T05:46:29.625Z,79.20
2018-01-26T05:48:32.967Z,79.10
2018-01-26T05:50:36.305Z,78.50
2018-01-26T05:52:39.665Z,78.30
2018-01-26T05:54:42.987Z,78.30
2018-01-26T05:56:46.317Z,78.90
2018-01-26T05:58:51.864Z,78.80
2018-01-26T06:00:59.458Z,79.20
2018-01-26T06:03:04.775Z,79.10
2018-01-26T06:05:08.126Z,79.40
2018-01-26T06:07:11.478Z,79.50
2018-01-26T06:09:14.844Z,79.40
2018-01-26T06:11:19.098Z,79.70
2018-01-26T06:13:22.522Z,79.40
2018-01-26T06:15:25.890Z,79.50
2018-01-26T06:17:29.237Z,79.60
2018-01-26T06:19:32.581Z,79.40
2018-01-26T06:21:35.898Z,79.70
2018-01-26T06:23:39.236Z,79.30
2018-01-26T06:25:42.588Z,79.60
2018-01-26T06:27:45.921Z,79.70
2018-01-26T06:29:49.244Z,79.60
2018-01-26T06:31:52.540Z,79.60
2018-01-26T06:33:55.941Z,79.30
2018-01-26T06:35:59.271Z,79.30
2018-01-26T06:38:03.375Z,79.70
2018-01-26T06:40:06.726Z,79.80
2018-01-26T06:42:10.057Z,79.50
2018-01-26T06:44:14.193Z,79.50
2018-01-26T06:46:17.509Z,79.30
2018-01-26T06:48:20.850Z,79.30
2018-01-26T06:50:24.930Z,79.40
2018-01-26T06:52:28.310Z,79.40
2018-01-26T06:54:31.673Z,79.00
2018-01-26T06:56:35.000Z,79.70
2018-01-26T06:58:38.327Z,79.60
2018-01-26T07:00:42.405Z,79.50
2018-01-26T07:02:45.760Z,79.70
2018-01-26T07:04:50.632Z,80.10
2018-01-26T07:06:54.808Z,80.90
2018-01-26T07:08:59.029Z,80.10
2018-01-26T07:11:02.375Z,80.30
2018-01-26T07:13:06.471Z,80.30
2018-01-26T07:15:10.773Z,80.00
2018-01-26T07:17:15.211Z,80.10
2018-01-26T07:19:18.589Z,79.90
2018-01-26T07:21:22.755Z,79.50
2018-01-26T07:23:26.068Z,79.60
2018-01-26T07:25:30.280Z,79.20
2018-01-26T07:27:33.601Z,79.10
2018-01-26T07:29:36.940Z,78.70
2018-01-26T07:31:40.518Z,80.50
2018-01-26T07:33:45.938Z,79.10
2018-01-26T07:35:50.097Z,79.00
2018-01-26T07:37:53.460Z,79.10
2018-01-26T07:39:56.880Z,79.40
2018-01-26T07:42:00.377Z,79.30
2018-01-26T07:44:05.233Z,79.60
2018-01-26T07:46:08.615Z,79.60
2018-01-26T07:48:12.269Z,79.80
2018-01-26T07:50:16.985Z,80.50
2018-01-26T07:52:20.333Z,79.80
2018-01-26T07:54:23.731Z,79.80
2018-01-26T07:56:27.858Z,79.80
2018-01-26T07:58:31.205Z,80.70
2018-01-26T08:00:35.080Z,80.20
2018-01-26T08:02:38.426Z,79.80
2018-01-26T08:04:42.557Z,80.00
2018-01-26T08:06:47.632Z,80.10
2018-01-26T08:08:50.965Z,80.60
2018-01-26T08:10:55.065Z,79.80
2018-01-26T08:12:58.421Z,79.70
2018-01-26T08:15:01.877Z,79.50
2018-01-26T08:17:05.446Z,80.20
2018-01-26T08:19:10.124Z,79.90
2018-01-26T08:21:13.560Z,79.80
2018-01-26T08:23:17.067Z,79.40
2018-01-26T08:25:20.509Z,79.30
2018-01-26T08:27:23.876Z,79.10
2018-01-26T08:29:27.293Z,79.10
2018-01-26T08:31:30.648Z,79.20
2018-01-26T08:33:33.987Z,78.90
2018-01-26T08:35:37.374Z,78.90
2018-01-26T08:37:40.728Z,78.60
2018-01-26T08:39:44.064Z,78.70
2018-01-26T08:41:47.442Z,78.80
2018-01-26T08:43:50.778Z,78.60
2018-01-26T08:45:54.088Z,79.00
2018-01-26T08:47:57.432Z,79.60
2018-01-26T08:50:00.758Z,79.00
2018-01-26T08:52:04.854Z,78.90
2018-01-26T08:54:08.225Z,79.00
2018-01-26T08:56:11.541Z,79.80
2018-01-26T08:58:14.867Z,79.20
2018-01-26T09:00:18.195Z,78.90
2018-01-26T09:02:21.705Z,78.00
2018-01-26T09:04:25.119Z,78.30
2018-01-26T09:06:29.194Z,78.90
2018-01-26T09:08:32.518Z,79.00
2018-01-26T09:10:35.888Z,79.20
2018-01-26T09:12:39.267Z,78.80
2018-01-26T09:14:43.636Z,78.00
2018-01-26T09:16:46.983Z,78.00
2018-01-26T09:18:51.459Z,78.10
2018-01-26T09:20:54.811Z,78.10
2018-01-26T09:22:58.935Z,78.10
2018-01-26T09:25:03.206Z,77.90
2018-01-26T09:27:06.549Z,78.10
2018-01-26T09:29:09.890Z,77.90
2018-01-26T09:31:13.270Z,77.50
2018-01-26T09:33:16.586Z,76.90
2018-01-26T09:35:20.708Z,76.50
2018-01-26T09:37:24.091Z,76.20
2018-01-26T09:39:29.116Z,76.50
2018-01-26T09:41:33.367Z,76.60
2018-01-26T09:43:38.409Z,75.90
2018-01-26T09:45:43.143Z,75.90
2018-01-26T09:47:48.368Z,76.20
2018-01-26T09:49:51.852Z,76.20
2018-01-26T09:51:55.177Z,76.10
2018-01-26T09:53:58.887Z,76.30
2018-01-26T09:56:02.213Z,76.10
2018-01-26T09:58:06.357Z,73.70
2018-01-26T10:00:10.614Z,73.70
2018-01-26T10:02:14.001Z,73.60
2018-01-26T10:04:17.348Z,73.70
2018-01-26T10:06:20.726Z,74.80
2018-01-26T10:08:25.044Z,74.60
2018-01-26T10:10:29.353Z,74.80
2018-01-26T10:12:33.341Z,72.60
2018-01-26T10:14:37.445Z,71.60
2018-01-26T10:16:40.780Z,71.40
2018-01-26T10:18:44.106Z,71.10
2018-01-26T10:20:47.430Z,70.10
2018-01-26T10:22:51.588Z,69.00
2018-01-26T10:24:54.974Z,69.00
2018-01-26T10:26:58.305Z,69.70
2018-01-26T10:29:03.191Z,70.50
2018-01-26T10:31:06.545Z,68.10
2018-01-26T10:33:10.630Z,66.80
2018-01-26T10:35:13.992Z,66.90
2018-01-26T10:37:18.203Z,66.10
2018-01-26T10:39:23.755Z,67.30
2018-01-26T10:41:27.080Z,68.20
2018-01-26T10:43:30.526Z,68.70
2018-01-26T10:45:33.854Z,68.70
2018-01-26T10:47:37.310Z,67.90
2018-01-26T10:49:40.625Z,66.60
2018-01-26T10:51:44.007Z,57.90
2018-01-26T10:53:48.246Z,60.40
2018-01-26T10:55:51.628Z,57.50
2018-01-26T10:57:54.931Z,59.40
2018-01-26T10:59:58.265Z,59.00
2018-01-26T11:02:02.473Z,60.70
2018-01-26T11:04:05.836Z,61.60
2018-01-26T11:06:09.933Z,62.60
2018-01-26T11:08:13.314Z,62.50
2018-01-26T11:10:17.456Z,62.40
2018-01-26T11:12:20.817Z,62.60
2018-01-26T11:14:24.166Z,62.20
2018-01-26T11:16:27.487Z,62.40
2018-01-26T11:18:30.808Z,63.60
2018-01-26T11:20:34.807Z,63.40
2018-01-26T11:22:38.126Z,63.40
2018-01-26T11:24:42.207Z,61.40
2018-01-26T11:26:45.519Z,61.40
2018-01-26T11:28:49.605Z,60.80
2018-01-26T11:30:52.955Z,60.90
2018-01-26T11:32:57.072Z,60.90
2018-01-26T11:35:01.265Z,61.00
2018-01-26T11:37:04.609Z,58.70
2018-01-26T11:39:07.965Z,58.80
2018-01-26T11:41:11.388Z,60.60
2018-01-26T11:43:15.490Z,59.80
2018-01-26T11:45:18.799Z,59.50
2018-01-26T11:47:22.891Z,58.20
2018-01-26T11:49:26.210Z,58.20
2018-01-26T11:51:30.329Z,52.20
2018-01-26T11:53:34.409Z,51.30
2018-01-26T11:55:37.748Z,51.30
2018-01-26T11:57:41.088Z,52.40
2018-01-26T11:59:44.426Z,49.40
2018-01-26T12:01:47.804Z,50.90
2018-01-26T12:03:51.950Z,49.20
2018-01-26T12:05:55.286Z,49.40
2018-01-26T12:07:59.366Z,54.50
2018-01-26T12:10:02.696Z,54.40
2018-01-26T12:12:06.805Z,51.40
2018-01-26T12:14:10.811Z,51.30
2018-01-26T12:16:14.160Z,51.80
2018-01-26T12:18:17.505Z,53.70
2018-01-26T12:20:20.818Z,56.10
2018-01-26T12:22:25.446Z,55.50
2018-01-26T12:24:28.797Z,54.80
2018-01-26T12:26:32.919Z,57.40
2018-01-26T12:28:36.239Z,57.40
2018-01-26T12:30:40.192Z,55.70
2018-01-26T12:32:43.561Z,55.90
2018-01-26T12:34:46.870Z,57.60
2018-01-26T12:36:50.941Z,56.60
2018-01-26T12:38:54.256Z,56.80
2018-01-26T12:40:58.396Z,57.40
2018-01-26T12:43:01.755Z,58.40
2018-01-26T12:45:05.070Z,57.70
2018-01-26T12:47:09.665Z,57.30
2018-01-26T12:49:12.984Z,57.20
2018-01-26T12:51:17.961Z,57.70
2018-01-26T12:53:21.330Z,57.80
2018-01-26T12:55:25.536Z,60.50
2018-01-26T12:57:28.867Z,58.50
2018-01-26T12:59:32.737Z,59.20
2018-01-26T13:01:36.129Z,56.60
2018-01-26T13:03:39.510Z,58.10
2018-01-26T13:05:42.825Z,58.80
2018-01-26T13:07:46.207Z,56.10
2018-01-26T13:09:50.476Z,58.30
2018-01-26T13:11:53.791Z,57.40
2018-01-26T13:13:57.159Z,57.80
2018-01-26T13:16:00.533Z,58.90
2018-01-26T13:18:03.894Z,60.70
2018-01-26T13:20:07.278Z,59.80
2018-01-26T13:22:10.567Z,59.80
2018-01-26T13:24:14.281Z,59.60
2018-01-26T13:26:18.460Z,57.70
2018-01-26T13:28:22.608Z,58.90
2018-01-26T13:30:25.944Z,59.00
2018-01-26T13:32:30.040Z,56.20
2018-01-26T13:34:34.362Z,56.40
2018-01-26T13:36:37.795Z,56.20
2018-01-26T13:38:41.269Z,55.40
2018-01-26T13:40:44.652Z,56.70
2018-01-26T13:42:49.431Z,60.10
2018-01-26T13:44:53.619Z,59.70
2018-01-26T13:46:56.962Z,59.40
2018-01-26T13:49:00.278Z,59.30
2018-01-26T13:51:03.625Z,60.70
2018-01-26T13:53:07.047Z,61.30
2018-01-26T13:55:11.223Z,61.80
2018-01-26T13:57:15.284Z,62.00
2018-01-26T13:59:19.372Z,62.10
2018-01-26T14:01:22.679Z,62.30
2018-01-26T14:03:26.795Z,62.80
2018-01-26T14:05:30.196Z,62.80
2018-01-26T14:07:33.529Z,63.40
2018-01-26T14:09:36.858Z,64.60
2018-01-26T14:11:41.113Z,64.30
2018-01-26T14:13:45.471Z,63.90
2018-01-26T14:15:48.940Z,64.00
2018-01-26T14:17:53.240Z,64.10
2018-01-26T14:19:56.649Z,64.00
2018-01-26T14:22:00.039Z,64.10
2018-01-26T14:24:03.361Z,64.40
2018-01-26T14:26:07.802Z,64.00
2018-01-26T14:28:11.123Z,63.70
2018-01-26T14:30:14.513Z,62.90
2018-01-26T14:32:18.125Z,62.40
2018-01-26T14:34:21.419Z,63.40
2018-01-26T14:36:25.735Z,63.10
2018-01-26T14:38:29.504Z,62.40
2018-01-26T14:40:32.848Z,61.40
2018-01-26T14:42:37.000Z,63.60
2018-01-26T14:44:41.351Z,63.60
2018-01-26T14:46:44.713Z,64.50
2018-01-26T14:48:48.058Z,64.20
2018-01-26T14:50:51.389Z,64.40
2018-01-26T14:52:54.798Z,64.70
2018-01-26T14:54:58.129Z,65.90
2018-01-26T14:57:01.526Z,65.30
2018-01-26T14:59:05.662Z,64.90
2018-01-26T15:01:09.759Z,65.00
2018-01-26T15:03:13.920Z,63.30
2018-01-26T15:05:17.296Z,63.00
2018-01-26T15:07:20.663Z,64.10
2018-01-26T15:09:24.073Z,65.10
2018-01-26T15:11:27.421Z,65.90
2018-01-26T15:13:31.588Z,66.60
2018-01-26T15:15:34.935Z,66.50
2018-01-26T15:17:39.064Z,67.10
2018-01-26T15:19:43.204Z,67.20
2018-01-26T15:21:46.626Z,66.80
2018-01-26T15:23:50.765Z,67.60
2018-01-26T15:25:54.897Z,67.80
2018-01-26T15:27:58.710Z,68.70
2018-01-26T15:30:02.040Z,68.10
2018-01-26T15:32:05.484Z,68.00
2018-01-26T15:34:08.946Z,69.40
2018-01-26T15:36:12.361Z,68.20
2018-01-26T15:38:15.754Z,68.30
2018-01-26T15:40:19.184Z,68.60
2018-01-26T15:42:22.915Z,68.20
2018-01-26T15:44:26.276Z,68.50
2018-01-26T15:46:29.864Z,68.80
2018-01-26T15:48:33.611Z,68.60
2018-01-26T15:50:37.014Z,68.00
2018-01-26T15:52:40.357Z,67.90
2018-01-26T15:54:43.674Z,67.50
2018-01-26T15:56:47.814Z,68.20
2018-01-26T15:58:51.184Z,68.00
2018-01-26T16:00:54.574Z,68.20
2018-01-26T16:02:59.858Z,68.20
2018-01-26T16:05:03.247Z,69.00
2018-01-26T16:07:06.585Z,69.00
2018-01-26T16:09:09.969Z,69.00
2018-01-26T16:11:13.346Z,70.30
2018-01-26T16:13:16.701Z,70.20
2018-01-26T16:15:20.065Z,70.00
2018-01-26T16:17:23.481Z,70.50
2018-01-26T16:19:27.062Z,70.90
2018-01-26T16:21:31.174Z,70.00
2018-01-26T16:23:34.541Z,70.10
2018-01-26T16:25:37.953Z,70.70
2018-01-26T16:27:42.348Z,71.00
2018-01-26T16:29:45.719Z,70.90
2018-01-26T16:31:49.057Z,71.10
2018-01-26T16:33:53.251Z,70.30
2018-01-26T16:35:56.674Z,70.40
2018-01-26T16:38:00.045Z,70.40
2018-01-26T16:40:04.230Z,72.00
2018-01-26T16:42:07.665Z,71.90
2018-01-26T16:44:11.861Z,72.30
2018-01-26T16:46:16.013Z,71.30
2018-01-26T16:48:19.356Z,71.20
2018-01-26T16:50:22.916Z,71.90
2018-01-26T16:52:27.465Z,71.90
2018-01-26T16:54:31.374Z,71.70
2018-01-26T16:56:34.705Z,71.50
2018-01-26T16:58:38.108Z,71.70
2018-01-26T17:00:41.483Z,71.80
2018-01-26T17:02:44.954Z,72.20
2018-01-26T17:04:49.089Z,72.50
2018-01-26T17:06:52.450Z,72.40
2018-01-26T17:08:56.869Z,72.20
2018-01-26T17:11:00.409Z,72.40
2018-01-26T17:13:03.746Z,72.60
2018-01-26T17:15:07.920Z,72.80
2018-01-26T17:17:11.272Z,72.50
2018-01-26T17:19:14.628Z,72.50
2018-01-26T17:21:18.038Z,72.30
2018-01-26T17:23:21.389Z,72.60
2018-01-26T17:25:24.733Z,72.50
2018-01-26T17:27:28.104Z,72.60
2018-01-26T17:29:31.416Z,72.80
2018-01-26T17:31:35.526Z,72.80
2018-01-26T17:33:39.667Z,72.80
2018-01-26T17:35:43.744Z,73.60
2018-01-26T17:37:47.851Z,73.10
2018-01-26T17:39:51.941Z,72.90
2018-01-26T17:41:55.296Z,72.90
2018-01-26T17:43:58.640Z,73.50
2018-01-26T17:46:02.715Z,73.00
2018-01-26T17:48:06.057Z,73.40
2018-01-26T17:50:10.125Z,73.30
2018-01-26T17:52:13.466Z,73.20
2018-01-26T17:54:16.802Z,73.60
2018-01-26T17:56:20.115Z,73.60
2018-01-26T17:58:24.257Z,74.10
2018-01-26T18:00:27.587Z,73.80
2018-01-26T18:02:30.988Z,74.10
2018-01-26T18:04:35.102Z,74.10
2018-01-26T18:06:38.572Z,74.20
2018-01-26T18:08:42.391Z,74.40
2018-01-26T18:10:48.288Z,74.40
2018-01-26T18:12:53.199Z,74.50
2018-01-26T18:14:58.841Z,74.50
2018-01-26T18:17:02.521Z,74.30
2018-01-26T18:19:05.911Z,74.00
2018-01-26T18:21:11.287Z,74.30
2018-01-26T18:23:15.238Z,74.10
2018-01-26T18:25:19.514Z,74.00
2018-01-26T18:27:23.180Z,74.40
2018-01-26T18:29:27.374Z,74.60
2018-01-26T18:31:31.865Z,74.80
2018-01-26T18:33:35.363Z,74.50
2018-01-26T18:35:38.930Z,74.70
2018-01-26T18:37:42.277Z,74.90
2018-01-26T18:39:45.650Z,74.70
2018-01-26T18:41:48.981Z,75.00
2018-01-26T18:43:52.311Z,74.50
2018-01-26T18:45:55.713Z,74.80
2018-01-26T18:47:59.040Z,74.60
2018-01-26T18:50:02.430Z,74.90
2018-01-26T18:52:05.741Z,74.90
2018-01-26T18:54:09.839Z,74.70
2018-01-26T18:56:13.160Z,75.00
2018-01-26T18:58:16.952Z,75.20
2018-01-26T19:00:21.076Z,75.30
2018-01-26T19:02:24.429Z,75.30
2018-01-26T19:04:28.543Z,75.10
2018-01-26T19:06:31.897Z,75.00
2018-01-26T19:08:35.219Z,74.30
2018-01-26T19:10:38.578Z,75.10
2018-01-26T19:12:41.884Z,74.70
2018-01-26T19:14:45.213Z,75.20
2018-01-26T19:16:49.427Z,75.10
2018-01-26T19:18:53.516Z,74.90
2018-01-26T19:20:57.624Z,74.80
2018-01-26T19:23:00.938Z,75.00
2018-01-26T19:25:05.027Z,75.30
2018-01-26T19:27:08.382Z,75.20
2018-01-26T19:29:11.780Z,75.30
2018-01-26T19:31:15.357Z,75.40
2018-01-26T19:33:18.699Z,74.90
2018-01-26T19:35:22.808Z,75.00
2018-01-26T19:37:26.942Z,75.20
2018-01-26T19:39:31.054Z,75.40
2018-01-26T19:41:34.424Z,75.40
2018-01-26T19:43:37.777Z,75.60
2018-01-26T19:45:41.929Z,75.50
2018-01-26T19:47:46.941Z,76.00
2018-01-26T19:49:50.262Z,76.00
2018-01-26T19:51:54.345Z,76.00
2018-01-26T19:53:59.260Z,76.00
2018-01-26T19:56:02.568Z,76.10
2018-01-26T19:58:05.905Z,76.60
2018-01-26T20:00:09.298Z,75.80
2018-01-26T20:02:12.656Z,76.00
2018-01-26T20:07:14.767Z,76.70
2018-01-26T20:09:23.869Z,76.70
2018-01-26T20:11:27.963Z,77.00
2018-01-26T20:13:33.271Z,76.50
2018-01-26T20:15:37.186Z,76.40
2018-01-26T20:17:40.566Z,76.30
2018-01-26T20:19:43.911Z,76.20
2018-01-26T20:21:47.253Z,76.70
2018-01-26T20:23:50.613Z,77.40
2018-01-26T20:25:53.937Z,77.20
2018-01-26T20:27:57.257Z,77.90
2018-01-26T20:30:01.390Z,77.50
2018-01-26T20:32:05.551Z,77.90
2018-01-26T20:34:09.689Z,78.00
2018-01-26T20:36:13.844Z,78.20
2018-01-26T20:38:17.194Z,78.10
2018-01-26T20:40:20.535Z,78.20
2018-01-26T20:42:25.306Z,78.20
2018-01-26T20:44:28.685Z,78.30
2018-01-26T20:46:32.065Z,77.80
2018-01-26T20:48:38.378Z,77.40
2018-01-26T20:50:41.740Z,77.30
2018-01-26T20:52:45.068Z,77.60
2018-01-26T20:54:50.200Z,77.20
2018-01-26T20:56:53.580Z,77.00
2018-01-26T20:58:56.910Z,77.10
2018-01-26T21:01:00.273Z,77.10
2018-01-26T21:03:03.591Z,77.10
2018-01-26T21:05:06.961Z,77.00
2018-01-26T21:07:10.279Z,77.10
2018-01-26T21:09:14.867Z,77.10
2018-01-26T21:11:18.292Z,77.00
2018-01-26T21:13:21.721Z,77.10
2018-01-26T21:15:26.521Z,77.00
2018-01-26T21:17:30.190Z,77.00
2018-01-26T21:19:33.635Z,76.90
2018-01-26T21:21:38.436Z,77.10
2018-01-26T21:23:42.708Z,76.90
2018-01-26T21:25:46.046Z,77.00
2018-01-26T21:27:49.367Z,76.90
2018-01-26T21:29:53.444Z,76.90
2018-01-26T21:31:56.762Z,76.80
2018-01-26T21:34:01.818Z,76.90
2018-01-26T21:36:05.891Z,76.90
2018-01-26T21:38:10.186Z,76.90
2018-01-26T21:40:13.518Z,76.90
2018-01-26T21:42:18.523Z,76.90
2018-01-26T21:44:21.908Z,77.00
2018-01-26T21:46:26.118Z,76.90
2018-01-26T21:48:30.227Z,76.90
2018-01-26T21:50:33.617Z,77.00
2018-01-26T21:52:36.965Z,76.90
2018-01-26T21:54:40.830Z,77.50
2018-01-26T21:56:45.437Z,76.90
2018-01-26T21:58:49.383Z,76.90
2018-01-26T22:00:54.013Z,76.90
2018-01-26T22:02:59.549Z,76.90
2018-01-26T22:05:10.364Z,77.20
2018-01-26T22:07:19.394Z,77.10
2018-01-26T22:09:28.289Z,77.00
2018-01-26T22:11:32.240Z,77.50
2018-01-26T22:13:36.087Z,77.20
2018-01-26T22:15:39.586Z,77.30
2018-01-26T22:17:43.046Z,77.50
2018-01-26T22:19:46.536Z,77.50
2018-01-26T22:21:50.734Z,77.70
2018-01-26T22:23:54.077Z,77.50
2018-01-26T22:25:57.396Z,77.50
2018-01-26T22:28:00.758Z,77.40
2018-01-26T22:30:04.101Z,77.00
2018-01-26T22:32:08.198Z,77.20
2018-01-26T22:34:11.616Z,77.30
2018-01-26T22:36:15.715Z,77.10
2018-01-26T22:38:19.838Z,77.50
2018-01-26T22:40:23.922Z,77.60
2018-01-26T22:42:27.250Z,77.40
2018-01-26T22:44:30.612Z,78.00
2018-01-26T22:46:33.964Z,78.00
2018-01-26T22:48:37.290Z,78.30
2018-01-26T22:50:40.630Z,78.30
2018-01-26T22:52:43.937Z,78.50
2018-01-26T22:54:47.276Z,78.60
2018-01-26T22:56:51.352Z,78.40
2018-01-26T22:58:54.679Z,78.30
2018-01-26T23:00:58.772Z,77.90
2018-01-26T23:03:02.128Z,78.10
2018-01-26T23:05:06.222Z,77.70
2018-01-26T23:07:09.608Z,77.60
2018-01-26T23:09:12.964Z,77.80
2018-01-26T23:11:17.067Z,77.30
2018-01-26T23:13:20.385Z,77.50
2018-01-26T23:15:23.729Z,78.70
2018-01-26T23:17:27.049Z,77.10
2018-01-26T23:19:30.393Z,77.20
2018-01-26T23:21:33.701Z,77.40
2018-01-26T23:23:37.023Z,77.40
2018-01-26T23:25:41.102Z,77.40
2018-01-26T23:27:44.430Z,77.30
2018-01-26T23:29:47.781Z,78.30
2018-01-26T23:31:51.104Z,77.80
2018-01-26T23:33:55.198Z,77.50
2018-01-26T23:35:58.512Z,77.60
2018-01-26T23:38:01.866Z,78.00
2018-01-26T23:40:05.199Z,77.90
2018-01-26T23:42:09.185Z,77.90
2018-01-26T23:44:12.521Z,77.70
2018-01-26T23:46:15.859Z,78.00
2018-01-26T23:48:19.196Z,78.20
2018-01-26T23:50:22.526Z,77.90
2018-01-26T23:52:25.857Z,77.60
2018-01-26T23:54:29.936Z,77.50
2018-01-26T23:56:33.257Z,77.50
2018-01-26T23:58:36.571Z,76.90
